Time;durP1;ratioP1;P1;durP2;ratioP2;P2;SDS_P1;SDS_P2;PMS_P1;PMS_P2;Temp;Humidity;BMP_temperature;BMP_pressure;BME280_temperature;BME280_humidity;BME280_pressure;Samples;Min_cycle;Max_cycle;Signal;HPM_P1;HPM_P2
2023/06/27 00:00:33;;;;;;;9.35;6.07;;;18.80;99.90;;;;;;5075053;28;20070;-80
2023/06/27 00:02:59;;;;;;;8.85;6.45;;;19.10;99.90;;;;;;5075459;28;20016;-80
2023/06/27 00:05:24;;;;;;;9.75;6.50;;;19.30;99.90;;;;;;5075170;28;20035;-80
2023/06/27 00:07:50;;;;;;;7.45;6.22;;;19.50;99.90;;;;;;5074953;28;20107;-80
2023/06/27 00:10:15;;;;;;;9.85;6.30;;;20.10;99.90;;;;;;5074928;28;20025;-80
2023/06/27 00:12:44;;;;;;;8.68;5.95;;;21.00;99.90;;;;;;5073936;28;20487;-80
2023/06/27 00:15:10;;;;;;;9.67;6.30;;;21.60;99.90;;;;;;5075151;28;20017;-79
2023/06/27 00:17:37;;;;;;;10.13;6.30;;;22.00;99.90;;;;;;5073765;28;20075;-79
2023/06/27 00:20:04;;;;;;;7.68;5.78;;;22.30;99.90;;;;;;5074993;28;20024;-79
2023/06/27 00:22:30;;;;;;;8.45;5.53;;;22.40;99.90;;;;;;5073695;28;20086;-80
2023/06/27 00:24:56;;;;;;;7.07;6.38;;;22.70;99.90;;;;;;5074865;28;20446;-79
2023/06/27 00:27:21;;;;;;;9.15;6.25;;;22.90;99.90;;;;;;5073518;28;20112;-79
2023/06/27 00:29:47;;;;;;;7.20;6.00;;;22.90;99.90;;;;;;5074551;28;20427;-79
2023/06/27 00:32:13;;;;;;;6.78;5.80;;;23.00;99.90;;;;;;5074514;28;20016;-79
2023/06/27 00:34:38;;;;;;;6.35;5.65;;;23.00;99.90;;;;;;5073580;28;20028;-79
2023/06/27 00:37:04;;;;;;;7.95;6.10;;;23.00;99.90;;;;;;5074199;28;20413;-80
2023/06/27 00:39:32;;;;;;;7.60;6.20;;;23.00;99.90;;;;;;5073498;28;20055;-79
2023/06/27 00:41:58;;;;;;;7.40;6.40;;;23.00;99.90;;;;;;5072726;28;20028;-80
2023/06/27 00:44:24;;;;;;;7.97;5.90;;;23.00;99.90;;;;;;5074431;28;20027;-80
2023/06/27 00:46:51;;;;;;;7.95;5.95;;;22.90;99.90;;;;;;5074544;28;20032;-80
2023/06/27 00:49:19;;;;;;;9.40;5.85;;;22.90;99.90;;;;;;5072503;28;20025;-79
2023/06/27 00:51:48;;;;;;;9.55;6.38;;;22.70;99.90;;;;;;5036716;28;20086;-80
2023/06/27 00:54:15;;;;;;;;;;;22.60;99.90;;;;;;5036238;28;20082;-80
2023/06/27 00:56:41;;;;;;;9.80;5.78;;;22.40;99.90;;;;;;5036243;28;19912;-79
2023/06/27 00:59:08;;;;;;;11.45;6.40;;;22.30;99.90;;;;;;5053640;28;20056;-79
2023/06/27 01:01:33;;;;;;;7.95;6.50;;;22.20;99.90;;;;;;5054008;28;20104;-80
2023/06/27 01:03:59;;;;;;;9.95;6.57;;;22.10;99.90;;;;;;5054074;28;20457;-80
2023/06/27 01:06:28;;;;;;;13.02;5.90;;;22.00;99.90;;;;;;5036018;28;20461;-79
2023/06/27 01:09:03;;;;;;;6.80;5.78;;;21.90;99.90;;;;;;5036038;28;20075;-80
2023/06/27 01:11:35;;;;;;;10.25;6.30;;;21.80;99.90;;;;;;5036387;28;20032;-79
2023/06/27 01:14:03;;;;;;;10.35;6.10;;;21.70;99.90;;;;;;5053652;28;20021;-80
2023/06/27 01:16:30;;;;;;;10.32;6.47;;;21.60;99.90;;;;;;5035968;28;20029;-80
2023/06/27 01:18:57;;;;;;;10.13;5.97;;;21.60;99.90;;;;;;5035834;28;20482;-79
2023/06/27 01:21:27;;;;;;;9.82;6.30;;;21.70;99.90;;;;;;5053736;28;20033;-79
2023/06/27 01:23:55;;;;;;;9.02;5.50;;;21.80;99.90;;;;;;5035922;28;20487;-80
2023/06/27 01:26:21;;;;;;;6.18;5.57;;;21.80;99.90;;;;;;5035838;28;20021;-80
2023/06/27 01:28:47;;;;;;;6.50;5.60;;;21.80;99.90;;;;;;5035840;28;20029;-80
2023/06/27 01:31:25;;;;;;;7.75;5.80;;;21.80;99.90;;;;;;5035808;28;20033;-80
2023/06/27 01:33:57;;;;;;;7.68;6.13;;;21.80;99.90;;;;;;5035957;28;20159;-79
2023/06/27 01:36:48;;;;;;;9.32;5.78;;;21.80;99.90;;;;;;5035768;28;20469;-80
2023/06/27 01:39:18;;;;;;;7.05;5.60;;;21.80;99.90;;;;;;5035846;28;20040;-79
2023/06/27 01:41:47;;;;;;;7.15;5.78;;;21.90;99.90;;;;;;5053643;28;20047;-80
2023/06/27 01:44:15;;;;;;;5.80;5.10;;;21.90;99.90;;;;;;5053575;28;20376;-80
2023/06/27 01:46:41;;;;;;;8.05;5.22;;;21.80;99.90;;;;;;5053902;28;20040;-80
2023/06/27 01:49:08;;;;;;;8.70;6.10;;;21.80;99.90;;;;;;5035516;28;20074;-79
2023/06/27 01:51:34;;;;;;;6.63;5.35;;;21.80;99.90;;;;;;5053430;28;20032;-80
2023/06/27 01:53:59;;;;;;;8.35;5.18;;;21.70;99.90;;;;;;5053477;28;20025;-79
2023/06/27 01:56:25;;;;;;;10.25;5.65;;;21.70;99.90;;;;;;5053428;28;20025;-80
2023/06/27 01:58:51;;;;;;;8.73;5.43;;;21.70;99.90;;;;;;5053345;28;20087;-80
2023/06/27 02:01:17;;;;;;;6.25;5.13;;;21.60;99.90;;;;;;5035581;28;20503;-80
2023/06/27 02:03:42;;;;;;;5.80;5.13;;;21.60;99.90;;;;;;5035952;28;20078;-80
2023/06/27 02:06:08;;;;;;;6.05;5.10;;;21.50;99.90;;;;;;5056738;28;20025;-79
2023/06/27 02:08:34;;;;;;;7.93;6.05;;;21.60;99.90;;;;;;5039343;28;20120;-80
2023/06/27 02:10:59;;;;;;;7.60;5.68;;;21.50;99.90;;;;;;5039427;28;20021;-80
2023/06/27 02:13:25;;;;;;;6.57;5.53;;;21.40;99.90;;;;;;5057222;28;20128;-80
2023/06/27 02:15:51;;;;;;;13.95;5.35;;;21.40;99.90;;;;;;5039208;28;20031;-80
2023/06/27 02:18:17;;;;;;;7.05;6.03;;;21.30;99.90;;;;;;5056730;28;20116;-79
2023/06/27 02:20:42;;;;;;;6.40;5.75;;;21.30;99.90;;;;;;5057361;28;20029;-80
2023/06/27 02:23:08;;;;;;;10.43;5.78;;;21.30;99.90;;;;;;5056996;28;20025;-79
2023/06/27 02:25:33;;;;;;;9.82;6.18;;;21.20;99.90;;;;;;5056956;28;20453;-79
2023/06/27 02:27:59;;;;;;;6.22;5.63;;;21.20;99.90;;;;;;5039021;28;20478;-80
2023/06/27 02:30:25;;;;;;;9.95;6.25;;;21.20;99.90;;;;;;5038962;28;20033;-80
2023/06/27 02:32:50;;;;;;;9.80;5.80;;;21.20;99.90;;;;;;5056838;28;20381;-80
2023/06/27 02:35:16;;;;;;;8.73;6.05;;;21.20;99.90;;;;;;5056774;28;20040;-80
2023/06/27 02:37:44;;;;;;;7.45;5.97;;;21.10;99.90;;;;;;5038862;28;20091;-80
2023/06/27 02:40:10;;;;;;;12.68;6.53;;;21.10;99.90;;;;;;5038924;28;20484;-80
2023/06/27 02:42:36;;;;;;;11.13;6.05;;;21.10;99.90;;;;;;5056310;28;20040;-80
2023/06/27 02:45:02;;;;;;;6.97;5.82;;;21.10;99.90;;;;;;5056610;28;20024;-80
2023/06/27 02:47:28;;;;;;;7.60;6.20;;;21.00;99.90;;;;;;5038611;28;20021;-80
2023/06/27 02:49:53;;;;;;;7.15;5.53;;;21.00;99.90;;;;;;5056433;28;20401;-80
2023/06/27 02:52:19;;;;;;;12.05;7.00;;;20.90;99.90;;;;;;5056151;28;20407;-80
2023/06/27 02:54:45;;;;;;;8.98;6.22;;;20.80;99.90;;;;;;5056404;28;20083;-80
2023/06/27 02:57:10;;;;;;;7.93;7.07;;;20.80;99.90;;;;;;5056380;28;20021;-80
2023/06/27 02:59:36;;;;;;;9.23;6.07;;;20.70;99.90;;;;;;5038413;28;20496;-80
2023/06/27 03:02:01;;;;;;;8.95;6.60;;;20.60;99.90;;;;;;5056401;28;20037;-80
2023/06/27 03:04:27;;;;;;;10.43;7.20;;;20.60;99.90;;;;;;5038632;28;20044;-81
2023/06/27 03:06:53;;;;;;;8.93;7.32;;;20.50;99.90;;;;;;5038298;28;20025;-80
2023/06/27 03:09:19;;;;;;;9.32;6.90;;;20.50;99.90;;;;;;5056560;28;20033;-80
2023/06/27 03:11:45;;;;;;;10.40;6.88;;;20.40;99.90;;;;;;5056260;28;20025;-80
2023/06/27 03:14:10;;;;;;;17.60;7.75;;;20.40;99.90;;;;;;5056459;28;20099;-80
2023/06/27 03:16:36;;;;;;;8.05;6.63;;;20.40;99.90;;;;;;5037121;28;20120;-80
2023/06/27 03:19:02;;;;;;;9.07;6.53;;;20.40;99.90;;;;;;5055620;28;20044;-80
2023/06/27 03:21:27;;;;;;;9.18;6.70;;;20.40;99.90;;;;;;5038069;28;20047;-80
2023/06/27 03:23:53;;;;;;;9.93;7.60;;;20.40;99.90;;;;;;5055557;28;20522;-80
2023/06/27 03:26:23;;;;;;;11.10;7.53;;;20.40;99.90;;;;;;5055546;28;20027;-80
2023/06/27 03:28:48;;;;;;;12.35;7.90;;;20.30;99.90;;;;;;5037795;28;20078;-81
2023/06/27 03:31:14;;;;;;;9.90;7.22;;;20.30;99.90;;;;;;5038099;28;20026;-80
2023/06/27 03:33:39;;;;;;;8.25;7.28;;;20.20;99.90;;;;;;5037901;28;20025;-81
2023/06/27 03:36:05;;;;;;;11.43;7.60;;;20.20;99.90;;;;;;5037889;28;20025;-80
2023/06/27 03:38:31;;;;;;;10.20;7.40;;;20.20;99.90;;;;;;5055473;28;20109;-81
2023/06/27 03:40:56;;;;;;;11.30;7.13;;;20.20;99.90;;;;;;5056058;28;20057;-80
2023/06/27 03:43:25;;;;;;;8.32;6.70;;;20.20;99.90;;;;;;5037695;28;20033;-80
2023/06/27 03:45:51;;;;;;;10.00;7.07;;;20.10;99.90;;;;;;5055537;28;20025;-80
2023/06/27 03:48:16;;;;;;;8.20;6.95;;;20.10;99.90;;;;;;5037693;28;20033;-80
2023/06/27 03:50:42;;;;;;;11.77;6.95;;;20.10;99.90;;;;;;5060568;28;20048;-81
2023/06/27 03:53:08;;;;;;;11.05;6.95;;;20.10;99.90;;;;;;5074215;28;20146;-81
2023/06/27 03:55:33;;;;;;;9.15;6.82;;;20.10;99.90;;;;;;5075418;28;20074;-81
2023/06/27 03:58:00;;;;;;;10.18;7.30;;;20.10;99.90;;;;;;5075394;28;20040;-81
2023/06/27 04:00:26;;;;;;;13.07;6.90;;;20.10;99.90;;;;;;5075549;28;20453;-80
2023/06/27 04:02:51;;;;;;;8.10;6.95;;;20.00;99.90;;;;;;5074008;28;20051;-80
2023/06/27 04:05:17;;;;;;;7.80;7.00;;;20.10;99.90;;;;;;5073907;28;20025;-80
2023/06/27 04:07:43;;;;;;;15.77;7.53;;;20.10;99.90;;;;;;5073975;28;20055;-80
2023/06/27 04:10:09;;;;;;;15.00;7.22;;;20.00;99.90;;;;;;5075079;28;20376;-75
2023/06/27 04:12:34;;;;;;;15.10;7.05;;;20.00;99.90;;;;;;5074655;28;20025;-75
2023/06/27 04:15:00;;;;;;;10.32;7.20;;;20.00;99.90;;;;;;5075058;28;20103;-68
2023/06/27 04:17:25;;;;;;;10.20;7.80;;;20.00;99.90;;;;;;5074770;28;20030;-66
2023/06/27 04:19:51;;;;;;;8.52;6.78;;;20.00;99.90;;;;;;5074339;28;20025;-66
2023/06/27 04:22:16;;;;;;;11.88;7.53;;;20.00;99.90;;;;;;5074634;28;20024;-66
2023/06/27 04:24:42;;;;;;;12.02;7.50;;;20.00;99.90;;;;;;5074333;28;20064;-66
2023/06/27 04:27:08;;;;;;;11.88;8.43;;;20.10;99.90;;;;;;5074664;28;20108;-66
2023/06/27 04:29:34;;;;;;;10.10;8.15;;;20.10;99.90;;;;;;5074317;28;20028;-66
2023/06/27 04:32:00;;;;;;;11.43;7.80;;;20.20;99.90;;;;;;5074724;28;20027;-67
2023/06/27 04:34:26;;;;;;;11.27;7.40;;;20.20;99.90;;;;;;5074435;28;20051;-66
2023/06/27 04:36:52;;;;;;;8.20;7.07;;;20.20;99.90;;;;;;5074596;28;20035;-66
2023/06/27 04:39:17;;;;;;;8.98;7.03;;;20.30;99.90;;;;;;5074360;28;20024;-67
2023/06/27 04:41:43;;;;;;;9.13;7.47;;;20.30;99.90;;;;;;5074321;28;20082;-67
2023/06/27 04:44:09;;;;;;;10.43;7.28;;;20.30;99.90;;;;;;5074244;28;20104;-73
2023/06/27 04:46:34;;;;;;;11.10;8.05;;;20.30;99.90;;;;;;5072916;28;20119;-71
2023/06/27 04:49:00;;;;;;;10.52;7.50;;;20.40;99.90;;;;;;5072610;28;20028;-72
2023/06/27 04:51:29;;;;;;;12.50;7.68;;;20.40;99.90;;;;;;5054515;28;20048;-71
2023/06/27 04:53:55;;;;;;;13.30;7.55;;;20.40;99.90;;;;;;5054376;28;20438;-72
2023/06/27 04:56:22;;;;;;;11.18;7.05;;;20.50;99.90;;;;;;5054082;28;20158;-72
2023/06/27 04:58:48;;;;;;;17.50;9.32;;;20.50;99.90;;;;;;5036055;28;20513;-71
2023/06/27 05:01:14;;;;;;;10.38;6.82;;;20.50;99.90;;;;;;5054235;28;20025;-72
2023/06/27 05:03:41;;;;;;;10.05;7.20;;;20.50;99.90;;;;;;5053940;28;20029;-72
2023/06/27 05:06:07;;;;;;;9.05;6.72;;;20.50;99.90;;;;;;5036326;28;20377;-70
2023/06/27 05:08:35;;;;;;;9.43;6.97;;;20.40;99.90;;;;;;5036010;28;20037;-71
2023/06/27 05:11:00;;;;;;;14.07;6.63;;;20.50;99.90;;;;;;5053552;28;20060;-70
2023/06/27 05:13:26;;;;;;;8.43;6.65;;;20.40;99.90;;;;;;5053564;28;20443;-71
2023/06/27 05:15:52;;;;;;;11.43;6.30;;;20.40;99.90;;;;;;5053661;28;20025;-71
2023/06/27 05:18:17;;;;;;;9.77;5.95;;;20.40;99.90;;;;;;5035573;28;20037;-71
2023/06/27 05:20:44;;;;;;;13.70;6.28;;;20.30;99.90;;;;;;5053352;28;20052;-70
2023/06/27 05:23:10;;;;;;;7.05;5.38;;;20.30;99.90;;;;;;5053829;28;20465;-71
2023/06/27 05:25:35;;;;;;;11.77;5.00;;;20.30;99.90;;;;;;5053898;28;20029;-71
2023/06/27 05:28:01;;;;;;;8.88;5.32;;;20.30;99.90;;;;;;5054057;28;20453;-71
2023/06/27 05:30:28;;;;;;;8.43;6.13;;;20.30;99.90;;;;;;5053947;28;20480;-71
2023/06/27 05:32:54;;;;;;;12.32;5.45;;;20.30;99.90;;;;;;5035734;28;20025;-71
2023/06/27 05:35:20;;;;;;;10.20;5.05;;;20.30;99.90;;;;;;5053620;28;20074;-71
2023/06/27 05:37:46;;;;;;;10.15;5.38;;;20.40;99.90;;;;;;5053597;28;20021;-71
2023/06/27 05:40:12;;;;;;;7.78;4.50;;;20.30;99.90;;;;;;5037348;28;20115;-72
2023/06/27 05:42:38;;;;;;;11.50;4.68;;;20.30;99.90;;;;;;5057639;28;20029;-70
2023/06/27 05:45:04;;;;;;;10.52;5.32;;;20.30;99.90;;;;;;5058010;28;20033;-70
2023/06/27 05:47:29;;;;;;;6.00;4.20;;;20.30;99.90;;;;;;5057723;28;20082;-70
2023/06/27 05:49:55;;;;;;;10.82;4.60;;;20.40;99.90;;;;;;5049493;28;20403;-71
2023/06/27 05:52:22;;;;;;;10.05;4.93;;;20.40;99.90;;;;;;5076193;28;20032;-71
2023/06/27 05:54:48;;;;;;;9.50;4.35;;;20.40;99.90;;;;;;5076227;28;20119;-71
2023/06/27 05:57:14;;;;;;;6.90;4.25;;;20.40;99.90;;;;;;5077595;28;20166;-71
2023/06/27 05:59:40;;;;;;;5.72;4.43;;;20.30;99.90;;;;;;5075940;28;20063;-71
2023/06/27 06:02:05;;;;;;;5.53;3.90;;;20.40;99.90;;;;;;5077042;28;20031;-70
2023/06/27 06:04:31;;;;;;;6.82;3.90;;;20.30;99.90;;;;;;5077576;28;20020;-71
2023/06/27 06:06:58;;;;;;;6.93;4.10;;;20.30;99.90;;;;;;5076127;28;20135;-70
2023/06/27 06:09:24;;;;;;;5.95;4.18;;;20.20;99.90;;;;;;5077790;28;20455;-70
2023/06/27 06:11:50;;;;;;;6.65;4.15;;;20.10;99.90;;;;;;5077440;28;20063;-70
2023/06/27 06:14:16;;;;;;;7.60;3.60;;;20.10;99.90;;;;;;5077098;28;20060;-70
2023/06/27 06:16:41;;;;;;;5.57;3.67;;;20.10;99.90;;;;;;5076954;28;20449;-70
2023/06/27 06:19:07;;;;;;;5.93;3.92;;;20.10;99.90;;;;;;5075674;28;20123;-70
2023/06/27 06:21:33;;;;;;;7.45;3.70;;;20.10;99.90;;;;;;5077578;28;20039;-70
2023/06/27 06:23:59;;;;;;;7.97;4.00;;;20.10;99.90;;;;;;5076912;28;20562;-70
2023/06/27 06:26:25;;;;;;;6.47;4.20;;;20.20;99.90;;;;;;5076892;28;20095;-70
2023/06/27 06:28:50;;;;;;;9.48;4.35;;;20.20;99.90;;;;;;5075551;28;20040;-70
2023/06/27 06:31:16;;;;;;;7.78;3.55;;;20.30;99.90;;;;;;5075522;28;20028;-70
2023/06/27 06:33:46;;;;;;;6.97;3.67;;;20.40;99.90;;;;;;5076642;28;20031;-70
2023/06/27 06:36:12;;;;;;;6.60;3.55;;;20.50;99.90;;;;;;5076585;28;20151;-70
2023/06/27 06:38:39;;;;;;;9.65;3.90;;;20.60;99.90;;;;;;5076715;28;20035;-70
2023/06/27 06:41:05;;;;;;;5.10;3.33;;;20.70;99.90;;;;;;5075203;28;20111;-70
2023/06/27 06:43:31;;;;;;;6.32;3.45;;;20.80;99.90;;;;;;5076549;28;20114;-70
2023/06/27 06:45:57;;;;;;;8.55;3.40;;;20.80;99.90;;;;;;5076433;28;20028;-70
2023/06/27 06:48:23;;;;;;;8.10;3.75;;;20.90;99.90;;;;;;5076514;28;20025;-70
2023/06/27 06:50:50;;;;;;;5.70;3.58;;;20.90;99.90;;;;;;5061611;28;20045;-70
2023/06/27 06:53:17;;;;;;;8.40;4.20;;;20.80;99.90;;;;;;5056293;28;20033;-70
2023/06/27 06:55:42;;;;;;;5.03;2.85;;;20.80;99.90;;;;;;5056337;28;20461;-70
2023/06/27 06:58:08;;;;;;;6.57;3.63;;;20.90;99.90;;;;;;5056012;28;20029;-70
2023/06/27 07:00:34;;;;;;;9.02;3.35;;;21.10;99.90;;;;;;5038859;28;20033;-70
2023/06/27 07:02:59;;;;;;;9.15;3.55;;;21.30;99.90;;;;;;5056238;28;20021;-70
2023/06/27 07:05:25;;;;;;;7.45;3.30;;;21.40;99.90;;;;;;5056276;28;20056;-70
2023/06/27 07:07:51;;;;;;;9.30;3.83;;;21.40;99.90;;;;;;5056142;28;20104;-70
2023/06/27 07:10:17;;;;;;;4.90;3.15;;;21.30;99.90;;;;;;5055812;28;20032;-70
2023/06/27 07:12:42;;;;;;;7.75;3.40;;;21.30;99.90;;;;;;5055810;28;20025;-70
2023/06/27 07:15:09;;;;;;;7.78;3.65;;;21.40;99.90;;;;;;5056487;28;20036;-70
2023/06/27 07:17:34;;;;;;;9.50;3.50;;;21.60;99.90;;;;;;5055611;28;20376;-70
2023/06/27 07:20:01;;;;;;;7.40;2.90;;;21.80;99.90;;;;;;5055950;28;20025;-70
2023/06/27 07:22:26;;;;;;;5.35;3.30;;;21.90;99.90;;;;;;5056645;28;20040;-70
2023/06/27 07:24:52;;;;;;;4.40;3.08;;;21.90;99.90;;;;;;5055797;28;20021;-70
2023/06/27 07:27:18;;;;;;;6.18;3.35;;;22.00;99.90;;;;;;5037861;28;20526;-71
2023/06/27 07:29:44;;;;;;;6.63;3.65;;;21.90;99.90;;;;;;5055819;28;20037;-71
2023/06/27 07:32:13;;;;;;;5.85;3.67;;;21.60;99.90;;;;;;5037921;28;20029;-70
2023/06/27 07:34:39;;;;;;;6.85;3.05;;;21.30;99.90;;;;;;5055388;28;20461;-70
2023/06/27 07:37:06;;;;;;;7.63;3.47;;;21.10;99.90;;;;;;5055568;28;20028;-72
2023/06/27 07:39:32;;;;;;;12.38;4.10;;;21.00;99.90;;;;;;5055358;28;20435;-72
2023/06/27 07:41:57;;;;;;;8.20;4.68;;;20.70;99.90;;;;;;5038201;28;20031;-72
2023/06/27 07:44:24;;;;;;;8.20;4.35;;;20.30;99.90;;;;;;5055458;28;20056;-71
2023/06/27 07:46:49;;;;;;;12.55;5.32;;;19.80;99.90;;;;;;5055385;28;20052;-71
2023/06/27 07:49:15;;;;;;;10.02;5.65;;;19.60;99.90;;;;;;5055420;28;20461;-70
2023/06/27 07:51:41;;;;;;;9.50;5.45;;;19.30;99.90;;;;;;5055627;28;20029;-71
2023/06/27 07:54:09;;;;;;;11.45;5.30;;;19.00;99.90;;;;;;5055187;28;20043;-71
2023/06/27 07:56:35;;;;;;;9.82;6.07;;;18.80;99.90;;;;;;5055166;28;20032;-71
2023/06/27 07:59:00;;;;;;;10.07;6.03;;;18.70;99.90;;;;;;5055157;28;20033;-70
2023/06/27 08:01:26;;;;;;;14.45;6.78;;;18.60;99.90;;;;;;5054746;28;20139;-70
2023/06/27 08:03:52;;;;;;;9.55;5.97;;;18.50;99.90;;;;;;5054026;28;20060;-70
2023/06/27 08:06:17;;;;;;;13.60;6.53;;;18.50;99.90;;;;;;5037118;28;20032;-71
2023/06/27 08:08:43;;;;;;;10.77;6.25;;;18.50;99.90;;;;;;5055269;28;20064;-70
2023/06/27 08:11:08;;;;;;;8.75;5.70;;;18.50;99.90;;;;;;5054912;28;20471;-70
2023/06/27 08:13:38;;;;;;;10.88;5.93;;;18.60;99.90;;;;;;5035566;28;20483;-69
2023/06/27 08:16:04;;;;;;;9.90;6.07;;;18.60;99.90;;;;;;5073260;28;20017;-69
2023/06/27 08:18:30;;;;;;;7.82;5.15;;;18.60;99.90;;;;;;5074389;28;20530;-69
2023/06/27 08:20:55;;;;;;;11.23;5.88;;;18.70;99.90;;;;;;5074800;28;20096;-69
2023/06/27 08:23:21;;;;;;;6.88;5.50;;;18.80;99.90;;;;;;5074646;28;20067;-70
2023/06/27 08:25:47;;;;;;;9.85;5.68;;;18.90;99.90;;;;;;5074307;28;20029;-70
2023/06/27 08:28:13;;;;;;;9.13;5.60;;;19.00;99.90;;;;;;5056352;28;20124;-70
2023/06/27 08:30:41;;;;;;;9.20;5.55;;;19.20;99.90;;;;;;5057029;28;20048;-70
2023/06/27 08:33:06;;;;;;;6.22;4.75;;;19.30;99.90;;;;;;5056772;28;20377;-70
2023/06/27 08:35:34;;;;;;;9.55;5.60;;;19.40;99.90;;;;;;5074336;28;20024;-70
2023/06/27 08:37:59;;;;;;;6.53;5.18;;;19.40;99.90;;;;;;5074040;28;20464;-70
2023/06/27 08:40:26;;;;;;;10.52;5.28;;;19.40;99.90;;;;;;5056083;28;20040;-70
2023/06/27 08:42:52;;;;;;;7.40;5.03;;;19.50;99.90;;;;;;5074315;28;20029;-70
2023/06/27 08:45:18;;;;;;;8.80;5.25;;;19.60;99.90;;;;;;5074350;28;20417;-70
2023/06/27 08:47:46;;;;;;;6.25;4.95;;;19.80;99.90;;;;;;5074181;28;20036;-70
2023/06/27 08:50:13;;;;;;;7.30;4.53;;;19.80;99.90;;;;;;5074457;28;20053;-70
2023/06/27 08:52:43;;;;;;;6.88;4.97;;;19.70;99.90;;;;;;5074221;28;20032;-70
2023/06/27 08:55:20;;;;;;;5.78;4.20;;;19.60;99.90;;;;;;5074108;28;20457;-70
2023/06/27 08:57:47;;;;;;;9.70;4.95;;;19.60;99.90;;;;;;5056343;28;20035;-70
2023/06/27 09:00:19;;;;;;;7.38;4.63;;;19.40;99.90;;;;;;5074006;28;20031;-70
2023/06/27 09:02:46;;;;;;;7.55;5.25;;;19.30;99.90;;;;;;5074184;28;20056;-70
2023/06/27 09:05:12;;;;;;;6.35;4.80;;;19.20;99.90;;;;;;5056464;28;20118;-70
2023/06/27 09:07:38;;;;;;;8.35;5.38;;;19.10;99.90;;;;;;5073819;28;20054;-71
2023/06/27 09:10:04;;;;;;;10.80;6.68;;;19.00;99.90;;;;;;5073851;28;20529;-71
2023/06/27 09:12:32;;;;;;;9.77;6.45;;;18.90;99.90;;;;;;5074084;28;20029;-70
2023/06/27 09:14:58;;;;;;;9.63;6.87;;;18.80;99.90;;;;;;5073834;28;20119;-67
2023/06/27 09:17:24;;;;;;;9.40;6.32;;;18.60;99.90;;;;;;5073979;28;20487;-66
2023/06/27 09:19:49;;;;;;;11.15;6.65;;;18.30;99.90;;;;;;5055646;28;20392;-65
2023/06/27 09:22:17;;;;;;;9.35;6.95;;;18.00;99.90;;;;;;5074478;28;20021;-65
2023/06/27 09:24:43;;;;;;;12.48;6.50;;;17.90;99.90;;;;;;5073747;28;20031;-66
2023/06/27 09:27:29;;;;;;;8.95;7.30;;;17.70;99.90;;;;;;5074112;28;20058;-66
2023/06/27 09:29:54;;;;;;;13.00;6.63;;;17.50;99.90;;;;;;5073612;28;20121;-65
2023/06/27 09:32:20;;;;;;;14.20;8.10;;;17.40;99.90;;;;;;5073632;28;20055;-66
2023/06/27 09:34:45;;;;;;;10.73;8.68;;;17.30;99.90;;;;;;5055634;28;20020;-66
2023/06/27 09:37:11;;;;;;;19.10;10.52;;;17.30;99.90;;;;;;5073527;28;20029;-66
2023/06/27 09:39:37;;;;;;;16.40;9.70;;;17.40;99.90;;;;;;5055483;28;20028;-66
2023/06/27 09:42:02;;;;;;;9.65;6.97;;;17.40;99.90;;;;;;5073611;28;20020;-66
2023/06/27 09:44:28;;;;;;;12.15;8.13;;;17.40;99.90;;;;;;5073462;28;20033;-67
2023/06/27 09:46:54;;;;;;;7.95;7.15;;;17.40;99.90;;;;;;5073515;28;20025;-66
2023/06/27 09:49:22;;;;;;;13.13;8.18;;;17.40;99.90;;;;;;5055757;28;20029;-65
2023/06/27 09:51:53;;;;;;;10.63;7.72;;;17.50;99.90;;;;;;5073664;28;20025;-67
2023/06/27 09:54:25;;;;;;;8.07;6.97;;;17.60;99.90;;;;;;5073428;28;20021;-66
2023/06/27 09:56:52;;;;;;;13.23;7.35;;;17.70;99.90;;;;;;5073715;28;20112;-66
2023/06/27 09:59:20;;;;;;;11.07;7.50;;;17.70;99.90;;;;;;5073399;28;20038;-67
2023/06/27 10:01:47;;;;;;;10.38;7.47;;;17.60;99.90;;;;;;5073538;28;20086;-67
2023/06/27 10:04:13;;;;;;;9.82;6.10;;;17.60;99.90;;;;;;5055648;28;20024;-67
2023/06/27 10:06:39;;;;;;;10.27;6.68;;;17.60;99.90;;;;;;5073268;28;20465;-67
2023/06/27 10:09:05;;;;;;;11.13;6.70;;;17.60;99.90;;;;;;5055343;28;20024;-67
2023/06/27 10:11:31;;;;;;;9.02;6.93;;;17.60;99.90;;;;;;5055308;28;20478;-66
2023/06/27 10:13:57;;;;;;;9.73;7.32;;;17.50;99.90;;;;;;5072996;28;20116;-66
2023/06/27 10:16:22;;;;;;;11.82;7.70;;;17.40;99.90;;;;;;5073672;28;20025;-67
2023/06/27 10:18:48;;;;;;;11.43;6.93;;;17.40;99.90;;;;;;5073290;28;20047;-66
2023/06/27 10:21:15;;;;;;;9.30;5.53;;;17.30;99.90;;;;;;5073139;28;20028;-66
2023/06/27 10:24:00;;;;;;;11.80;6.32;;;17.20;99.90;;;;;;5073163;28;20029;-65
2023/06/27 10:26:26;;;;;;;7.28;6.35;;;17.10;99.90;;;;;;5074820;28;20058;-66
2023/06/27 10:28:52;;;;;;;10.23;7.10;;;17.00;99.90;;;;;;5058938;28;20025;-66
2023/06/27 10:31:49;;;;;;;11.55;7.93;;;17.00;99.90;;;;;;5076563;28;20105;-66
2023/06/27 10:34:18;;;;;;;11.68;7.28;;;17.00;99.90;;;;;;5058858;28;20028;-66
2023/06/27 10:36:54;;;;;;;12.77;7.38;;;17.00;99.90;;;;;;5076727;28;20025;-66
2023/06/27 10:39:31;;;;;;;9.38;7.35;;;16.90;99.90;;;;;;5076762;28;20480;-66
2023/06/27 10:42:15;;;;;;;13.65;7.30;;;16.80;99.90;;;;;;5077065;28;20519;-67
2023/06/27 10:45:09;;;;;;;15.07;7.97;;;16.70;99.90;;;;;;5058921;28;20028;-67
2023/06/27 10:47:38;;;;;;;10.75;7.63;;;16.70;99.90;;;;;;5076470;28;20021;-66
2023/06/27 10:50:14;;;;;;;16.25;9.70;;;16.70;99.90;;;;;;5076133;28;20044;-66
2023/06/27 10:52:59;;;;;;;14.73;8.93;;;16.60;99.90;;;;;;5076564;28;20037;-67
2023/06/27 10:55:27;;;;;;;11.77;7.70;;;16.60;99.90;;;;;;5076499;28;20074;-66
2023/06/27 10:58:14;;;;;;;17.00;8.52;;;16.60;99.90;;;;;;5076300;28;20078;-66
2023/06/27 11:00:47;;;;;;;11.88;8.85;;;16.70;99.90;;;;;;5058180;28;20032;-66
2023/06/27 11:03:18;;;;;;;11.43;8.55;;;16.90;99.90;;;;;;5076392;28;20414;-66
2023/06/27 11:05:57;;;;;;;8.93;7.60;;;17.10;99.90;;;;;;5076581;28;20029;-66
2023/06/27 11:08:26;;;;;;;;;;;17.30;99.90;;;;;;5077033;28;20031;-67
2023/06/27 11:10:58;;;;;;;10.20;5.95;;;17.60;99.90;;;;;;5076206;28;19904;-67
2023/06/27 11:13:26;;;;;;;7.55;4.50;;;18.00;99.90;;;;;;5076369;28;20025;-67
2023/06/27 11:15:53;;;;;;;6.50;5.10;;;18.50;99.90;;;;;;5076673;28;20066;-67
2023/06/27 11:18:20;;;;;;;10.85;4.90;;;18.70;99.90;;;;;;5057633;28;20043;-67
2023/06/27 11:20:46;;;;;;;8.02;4.45;;;18.70;99.90;;;;;;5060779;28;20025;-67
2023/06/27 11:23:13;;;;;;;9.82;4.78;;;18.50;99.90;;;;;;5055837;28;20021;-67
2023/06/27 11:25:42;;;;;;;9.73;5.60;;;18.30;99.90;;;;;;5055836;28;20033;-68
2023/06/27 11:28:09;;;;;;;13.27;5.80;;;18.10;99.90;;;;;;5055620;28;20029;-69
2023/06/27 11:30:35;;;;;;;7.90;5.88;;;17.90;99.90;;;;;;5055645;28;20025;-68
2023/06/27 11:33:04;;;;;;;13.25;6.45;;;17.80;99.90;;;;;;5037739;28;20372;-69
2023/06/27 11:35:34;;;;;;;10.18;6.32;;;17.70;99.90;;;;;;5037705;28;20083;-68
2023/06/27 11:38:00;;;;;;;10.48;7.57;;;17.50;99.90;;;;;;5054954;28;20017;-68
2023/06/27 11:40:27;;;;;;;11.55;6.63;;;17.40;99.90;;;;;;5037825;28;20036;-68
2023/06/27 11:43:19;;;;;;;15.80;9.52;;;17.40;99.90;;;;;;5055317;28;20025;-67
2023/06/27 11:45:46;;;;;;;14.50;8.05;;;17.50;99.90;;;;;;5051417;28;20037;-67
2023/06/27 11:48:12;;;;;;;7.88;7.00;;;17.70;99.90;;;;;;5055496;28;20025;-67
2023/06/27 11:51:06;;;;;;;9.63;6.85;;;17.70;99.90;;;;;;5055156;28;20095;-67
2023/06/27 11:53:33;;;;;;;13.75;7.80;;;18.00;99.90;;;;;;5037563;28;20037;-67
2023/06/27 11:55:59;;;;;;;8.75;7.15;;;18.20;99.90;;;;;;5055280;28;20032;-67
2023/06/27 11:58:29;;;;;;;9.57;5.80;;;18.40;99.90;;;;;;5055283;28;20044;-67
2023/06/27 12:00:56;;;;;;;6.43;5.30;;;18.60;99.90;;;;;;5055102;28;20032;-67
2023/06/27 12:03:28;;;;;;;10.57;4.97;;;18.70;99.90;;;;;;5055185;28;20075;-67
2023/06/27 12:05:57;;;;;;;7.65;4.30;;;18.90;99.90;;;;;;5055077;28;20271;-67
2023/06/27 12:08:31;;;;;;;4.90;3.70;;;19.40;99.90;;;;;;5054907;28;20544;-67
2023/06/27 12:11:00;;;;;;;7.18;3.42;;;19.90;99.90;;;;;;5055015;28;20021;-67
2023/06/27 12:13:41;;;;;;;5.80;3.58;;;20.40;99.90;;;;;;5054873;28;20024;-67
2023/06/27 12:16:21;;;;;;;6.60;3.30;;;20.90;99.90;;;;;;5054802;28;20025;-67
2023/06/27 12:18:46;;;;;;;4.60;3.03;;;21.60;99.90;;;;;;5054833;28;20025;-67
2023/06/27 12:21:12;;;;;;;4.82;3.40;;;22.00;99.90;;;;;;5054904;28;20354;-66
2023/06/27 12:23:37;;;;;;;4.40;2.78;;;22.10;99.90;;;;;;5054801;28;20017;-68
2023/06/27 12:26:03;;;;;;;6.75;3.10;;;22.10;99.90;;;;;;5054662;28;20033;-68
2023/06/27 12:28:31;;;;;;;5.20;2.97;;;22.10;99.90;;;;;;5054850;28;20025;-68
2023/06/27 12:30:57;;;;;;;6.20;3.10;;;22.40;99.90;;;;;;5054575;28;20021;-67
2023/06/27 12:33:23;;;;;;;5.75;3.20;;;22.60;99.90;;;;;;5054255;28;20033;-67
2023/06/27 12:35:49;;;;;;;5.18;3.22;;;22.60;99.90;;;;;;5054186;28;20028;-69
2023/06/27 12:38:14;;;;;;;5.43;2.53;;;22.50;99.90;;;;;;5054396;28;20029;-69
2023/06/27 12:40:40;;;;;;;7.07;2.22;;;22.50;99.90;;;;;;5054252;28;20032;-67
2023/06/27 12:43:06;;;;;;;1.95;1.63;;;22.70;99.90;;;;;;5054594;28;20029;-67